createdAt,value
2019-05-02T00:01:09.477Z,16.87
2019-05-02T00:04:20.096Z,16.70
2019-05-02T00:07:20.093Z,17.43
2019-05-02T00:10:26.058Z,17.23
2019-05-02T00:13:30.162Z,18.40
2019-05-02T00:16:34.043Z,19.30
2019-05-02T00:19:37.980Z,18.27
2019-05-02T00:22:41.729Z,17.77
2019-05-02T00:25:47.333Z,18.57
2019-05-02T00:28:50.922Z,17.70
2019-05-02T00:31:54.614Z,17.60
2019-05-02T00:34:58.297Z,16.67
2019-05-02T00:38:02.427Z,15.47
2019-05-02T00:41:06.562Z,16.67
2019-05-02T00:44:10.954Z,16.53
2019-05-02T00:47:24.130Z,18.43
2019-05-02T00:50:29.494Z,16.60
2019-05-02T00:53:33.269Z,17.53
2019-05-02T00:56:40.109Z,16.30
2019-05-02T00:59:43.559Z,16.43
2019-05-02T01:02:58.011Z,16.57
2019-05-02T01:06:02.193Z,16.87
2019-05-02T01:09:10.884Z,16.53
2019-05-02T01:12:25.182Z,15.73
2019-05-02T01:15:18.533Z,14.53
2019-05-02T01:18:24.998Z,16.10
2019-05-02T01:21:28.885Z,15.23
2019-05-02T01:24:34.183Z,14.97
2019-05-02T01:27:43.137Z,14.00
2019-05-02T01:31:06.725Z,16.07
2019-05-02T01:34:27.301Z,14.93
2019-05-02T01:37:51.065Z,16.63
2019-05-02T01:40:55.752Z,15.67
2019-05-02T01:44:00.260Z,15.50
2019-05-02T01:47:05.122Z,17.57
2019-05-02T01:50:08.886Z,16.63
2019-05-02T01:53:12.823Z,16.10
2019-05-02T01:56:16.537Z,16.17
2019-05-02T01:59:20.485Z,15.53
2019-05-02T02:02:28.064Z,14.67
2019-05-02T02:05:32.296Z,15.97
2019-05-02T02:08:35.114Z,14.87
2019-05-02T02:11:38.852Z,14.73
2019-05-02T02:14:42.779Z,15.63
2019-05-02T02:17:46.969Z,14.50
2019-05-02T02:20:59.393Z,18.80
2019-05-02T02:24:09.756Z,15.87
2019-05-02T02:27:13.437Z,15.57
2019-05-02T02:30:23.908Z,14.97
2019-05-02T02:33:23.114Z,15.77
2019-05-02T02:36:31.501Z,14.93
2019-05-02T02:39:32.186Z,16.57
2019-05-02T02:42:35.901Z,14.93
2019-05-02T02:46:07.137Z,15.47
2019-05-02T02:49:13.927Z,16.90
2019-05-02T02:52:16.211Z,15.80
2019-05-02T02:55:22.043Z,14.97
2019-05-02T02:58:25.266Z,16.50
2019-05-02T03:01:31.125Z,14.47
2019-05-02T03:04:34.603Z,14.90
2019-05-02T03:07:39.683Z,14.50
2019-05-02T03:10:45.110Z,13.57
2019-05-02T03:14:06.160Z,14.80
2019-05-02T03:16:59.910Z,14.77
2019-05-02T03:20:04.049Z,13.80
2019-05-02T03:23:07.768Z,14.40
2019-05-02T03:26:15.341Z,14.03
2019-05-02T03:29:16.821Z,14.50
2019-05-02T03:32:31.734Z,13.30
2019-05-02T03:35:40.266Z,14.47
2019-05-02T03:38:35.051Z,14.37
2019-05-02T03:41:37.897Z,13.77
2019-05-02T03:44:41.547Z,13.77
2019-05-02T03:47:46.586Z,13.47
2019-05-02T03:50:51.023Z,13.87
2019-05-02T03:54:06.458Z,13.03
2019-05-02T03:57:00.476Z,13.03
2019-05-02T04:00:05.282Z,13.03
2019-05-02T04:03:09.088Z,12.47
2019-05-02T04:06:13.974Z,14.40
2019-05-02T04:09:40.042Z,13.00
2019-05-02T04:12:42.726Z,12.50
2019-05-02T04:15:46.751Z,11.60
2019-05-02T04:18:56.120Z,12.70
2019-05-02T04:22:01.628Z,12.47
2019-05-02T04:25:06.093Z,12.40
2019-05-02T04:28:11.876Z,12.73
2019-05-02T04:31:13.392Z,13.00
2019-05-02T04:34:17.932Z,12.53
2019-05-02T04:37:21.871Z,11.80
2019-05-02T04:40:28.198Z,12.20
2019-05-02T04:43:31.309Z,11.83
2019-05-02T04:46:35.086Z,12.30
2019-05-02T04:49:39.227Z,11.20
2019-05-02T04:52:48.400Z,11.63
2019-05-02T04:56:07.065Z,11.60
2019-05-02T04:59:13.968Z,11.30
2019-05-02T05:02:12.966Z,11.40
2019-05-02T05:05:25.027Z,12.63
2019-05-02T05:08:26.214Z,11.93
2019-05-02T05:11:27.531Z,11.20
2019-05-02T05:14:38.199Z,12.07
2019-05-02T05:17:37.510Z,12.10
2019-05-02T05:20:45.963Z,10.85
2019-05-02T05:24:18.158Z,10.30
2019-05-02T05:27:22.901Z,12.70
2019-05-02T05:30:27.819Z,11.30
2019-05-02T05:33:31.551Z,10.87
2019-05-02T05:36:37.020Z,10.43
2019-05-02T05:39:42.946Z,10.80
2019-05-02T05:42:48.107Z,13.20
2019-05-02T05:45:56.320Z,23.73
2019-05-02T05:48:58.331Z,9.77
2019-05-02T05:52:03.808Z,9.97
2019-05-02T05:55:12.699Z,9.67
2019-05-02T05:58:15.818Z,10.07
2019-05-02T06:01:20.576Z,11.77
2019-05-02T06:04:32.735Z,8.70
2019-05-02T06:07:33.685Z,8.60
2019-05-02T06:10:38.960Z,9.53
2019-05-02T06:13:48.903Z,9.17
2019-05-02T06:16:51.676Z,10.53
2019-05-02T06:19:55.423Z,10.17
2019-05-02T06:22:59.944Z,9.20
2019-05-02T06:26:07.843Z,10.27
2019-05-02T06:29:13.050Z,13.07
2019-05-02T06:32:19.364Z,9.70
2019-05-02T06:35:23.081Z,9.53
2019-05-02T06:38:26.800Z,10.03
2019-05-02T06:41:30.466Z,10.87
2019-05-02T06:44:34.205Z,10.83
2019-05-02T06:47:41.657Z,10.80
2019-05-02T06:50:43.511Z,10.47
2019-05-02T06:53:48.988Z,10.33
2019-05-02T06:56:52.749Z,14.20
2019-05-02T06:59:57.165Z,10.78
2019-05-02T07:03:04.995Z,10.83
2019-05-02T07:06:07.834Z,14.27
2019-05-02T07:09:12.090Z,12.07
2019-05-02T07:12:16.666Z,12.10
2019-05-02T07:15:58.327Z,13.00
2019-05-02T07:19:10.637Z,11.95
2019-05-02T07:22:14.780Z,14.87
2019-05-02T07:25:18.676Z,15.67
2019-05-02T07:28:23.948Z,12.63
2019-05-02T07:31:27.836Z,12.27
2019-05-02T07:34:31.766Z,16.40
2019-05-02T07:37:35.462Z,12.57
2019-05-02T07:40:39.538Z,17.10
2019-05-02T07:43:43.222Z,13.00
2019-05-02T07:46:52.013Z,20.57
2019-05-02T07:49:52.607Z,12.80
2019-05-02T07:52:56.245Z,11.83
2019-05-02T07:55:59.990Z,12.73
2019-05-02T07:59:04.746Z,13.77
2019-05-02T08:02:08.538Z,11.67
2019-05-02T08:05:15.516Z,13.20
2019-05-02T08:08:18.602Z,15.13
2019-05-02T08:11:22.571Z,13.50
2019-05-02T08:14:29.148Z,12.67
2019-05-02T08:17:32.011Z,17.30
2019-05-02T08:20:35.673Z,15.53
2019-05-02T08:23:39.486Z,14.60
2019-05-02T08:27:00.960Z,15.87
2019-05-02T08:30:05.990Z,15.97
2019-05-02T08:33:09.790Z,17.73
2019-05-02T08:36:13.833Z,16.97
2019-05-02T08:39:17.866Z,15.80
2019-05-02T08:42:21.547Z,16.60
2019-05-02T08:45:25.883Z,15.27
2019-05-02T08:48:29.626Z,18.27
2019-05-02T08:51:33.330Z,16.07
2019-05-02T08:54:37.073Z,16.33
2019-05-02T08:57:41.077Z,15.63
2019-05-02T09:00:47.104Z,16.67
2019-05-02T09:03:55.537Z,17.40
2019-05-02T09:06:58.769Z,17.83
2019-05-02T09:10:05.675Z,19.90
2019-05-02T09:13:07.414Z,17.40
2019-05-02T09:16:12.076Z,19.73
2019-05-02T09:19:21.243Z,19.70
2019-05-02T09:22:22.162Z,21.60
2019-05-02T09:25:26.239Z,18.60
2019-05-02T09:28:32.107Z,17.10
2019-05-02T09:31:36.693Z,20.07
2019-05-02T09:34:42.365Z,19.23
2019-05-02T09:37:46.444Z,22.10
2019-05-02T09:40:52.544Z,17.47
2019-05-02T09:43:55.785Z,21.80
2019-05-02T09:46:59.445Z,18.85
2019-05-02T09:50:15.645Z,19.47
2019-05-02T09:53:20.926Z,18.90
2019-05-02T09:56:25.080Z,20.00
2019-05-02T09:59:33.244Z,20.30
2019-05-02T10:02:37.190Z,18.27
2019-05-02T10:05:42.907Z,17.82
2019-05-02T10:08:46.750Z,18.90
2019-05-02T10:11:52.532Z,20.93
2019-05-02T10:14:56.802Z,20.80
2019-05-02T10:18:08.635Z,23.00
2019-05-02T10:21:07.728Z,20.80
2019-05-02T10:24:12.674Z,22.27
2019-05-02T10:27:16.462Z,18.93
2019-05-02T10:30:23.216Z,18.57
2019-05-02T10:33:27.931Z,19.33
2019-05-02T10:36:32.601Z,20.57
2019-05-02T10:39:37.971Z,21.73
2019-05-02T10:42:41.994Z,21.60
2019-05-02T10:45:54.857Z,27.33
2019-05-02T10:49:01.942Z,19.20
2019-05-02T10:52:05.659Z,22.48
2019-05-02T10:55:09.474Z,21.13
2019-05-02T10:58:13.169Z,17.97
2019-05-02T11:01:18.012Z,18.80
2019-05-02T11:04:28.831Z,23.30
2019-05-02T11:07:28.231Z,19.87
2019-05-02T11:10:32.361Z,21.90
2019-05-02T11:14:05.610Z,18.70
2019-05-02T11:17:17.315Z,19.70
2019-05-02T11:20:18.862Z,19.90
2019-05-02T11:23:22.874Z,19.73
2019-05-02T11:26:26.782Z,21.37
2019-05-02T11:29:32.195Z,19.52
2019-05-02T11:32:35.991Z,20.60
2019-05-02T11:35:41.681Z,17.15
2019-05-02T11:38:47.876Z,22.90
2019-05-02T11:41:52.566Z,22.53
2019-05-02T11:44:56.993Z,22.23
2019-05-02T11:48:01.687Z,22.75
2019-05-02T11:51:07.383Z,20.23
2019-05-02T11:54:12.898Z,19.90
2019-05-02T11:57:21.285Z,21.93
2019-05-02T12:00:24.261Z,19.60
2019-05-02T12:03:36.942Z,19.73
2019-05-02T12:06:38.744Z,24.33
2019-05-02T12:09:44.294Z,18.90
2019-05-02T12:12:47.915Z,17.00
2019-05-02T12:15:52.054Z,21.87
2019-05-02T12:19:08.562Z,19.50
2019-05-02T12:22:02.596Z,19.37
2019-05-02T12:25:06.890Z,18.40
2019-05-02T12:28:11.984Z,20.40
2019-05-02T12:31:29.508Z,19.43
2019-05-02T12:34:33.467Z,18.93
2019-05-02T12:37:37.202Z,18.57
2019-05-02T12:40:42.169Z,17.03
2019-05-02T12:43:46.193Z,17.50
2019-05-02T12:46:51.633Z,18.20
2019-05-02T12:49:55.309Z,20.53
2019-05-02T12:52:59.459Z,16.23
2019-05-02T12:56:03.197Z,18.03
2019-05-02T12:59:07.046Z,16.33
2019-05-02T13:02:16.354Z,21.05
2019-05-02T13:05:22.095Z,15.50
2019-05-02T13:08:25.450Z,14.67
2019-05-02T13:11:57.864Z,16.80
2019-05-02T13:15:02.295Z,16.63
2019-05-02T13:18:06.695Z,15.03
2019-05-02T13:21:13.385Z,14.43
2019-05-02T13:24:33.702Z,15.17
2019-05-02T13:27:43.319Z,16.27
2019-05-02T13:30:51.670Z,13.37
2019-05-02T13:34:13.290Z,14.13
2019-05-02T13:37:16.691Z,13.03
2019-05-02T13:40:25.582Z,14.00
2019-05-02T13:43:34.646Z,14.03
2019-05-02T13:46:38.458Z,13.33
2019-05-02T13:49:53.563Z,13.27
2019-05-02T13:52:53.107Z,14.47
2019-05-02T13:56:02.099Z,14.73
2019-05-02T13:59:06.118Z,16.53
2019-05-02T14:02:31.751Z,14.43
2019-05-02T14:05:37.305Z,13.83
2019-05-02T14:09:02.912Z,14.13
2019-05-02T14:12:25.473Z,14.87
2019-05-02T14:15:34.942Z,14.23
2019-05-02T14:18:38.662Z,19.23
2019-05-02T14:21:42.505Z,19.67
2019-05-02T14:24:46.223Z,15.50
2019-05-02T14:27:53.861Z,16.87
2019-05-02T14:30:55.338Z,16.53
2019-05-02T14:34:16.591Z,17.03
2019-05-02T14:37:20.409Z,17.20
2019-05-02T14:40:31.922Z,20.63
2019-05-02T14:43:53.309Z,20.77
2019-05-02T14:46:57.253Z,19.67
2019-05-02T14:50:04.049Z,19.53
2019-05-02T14:53:06.565Z,17.25
2019-05-02T14:56:15.132Z,19.20
2019-05-02T14:59:20.080Z,21.70
2019-05-02T15:02:47.543Z,19.10
2019-05-02T15:05:49.027Z,21.77
2019-05-02T15:08:52.908Z,20.03
2019-05-02T15:12:03.454Z,20.00
2019-05-02T15:15:08.304Z,23.67
2019-05-02T15:18:17.246Z,22.93
2019-05-02T15:21:22.809Z,20.63
2019-05-02T15:24:27.703Z,22.43
2019-05-02T15:27:40.137Z,26.40
2019-05-02T15:30:44.813Z,19.70
2019-05-02T15:33:51.808Z,19.73
2019-05-02T15:36:55.573Z,19.50
2019-05-02T15:43:09.240Z,20.00
2019-05-02T15:46:14.954Z,22.30
2019-05-02T15:49:16.023Z,23.73
2019-05-02T15:52:27.816Z,24.43
2019-05-02T15:55:33.892Z,22.97
2019-05-02T15:58:35.409Z,22.53
2019-05-02T16:01:48.036Z,19.50
2019-05-02T16:04:52.232Z,24.25
2019-05-02T16:08:05.248Z,27.67
2019-05-02T16:11:02.941Z,26.50
2019-05-02T16:14:07.130Z,22.70
2019-05-02T16:17:12.477Z,22.23
2019-05-02T16:20:24.023Z,24.05
2019-05-02T16:23:32.887Z,23.43
2019-05-02T16:26:37.106Z,21.50
2019-05-02T16:29:39.085Z,22.70
2019-05-02T16:32:46.973Z,21.70
2019-05-02T16:35:53.498Z,23.40
2019-05-02T16:38:56.146Z,24.87
2019-05-02T16:42:02.405Z,22.13
2019-05-02T16:45:07.727Z,27.10
2019-05-02T16:48:12.103Z,22.37
2019-05-02T16:51:30.038Z,23.20
2019-05-02T16:54:22.390Z,23.13
2019-05-02T16:57:26.193Z,25.30
2019-05-02T17:00:32.019Z,22.37
2019-05-02T17:03:36.026Z,27.53
2019-05-02T17:06:39.970Z,23.60
2019-05-02T17:10:14.781Z,25.30
2019-05-02T17:13:14.240Z,23.27
2019-05-02T17:16:18.190Z,23.87
2019-05-02T17:19:26.205Z,26.83
2019-05-02T17:22:27.952Z,23.03
2019-05-02T17:25:32.242Z,27.47
2019-05-02T17:28:38.015Z,23.93
2019-05-02T17:31:42.697Z,30.17
2019-05-02T17:34:46.742Z,27.10
2019-05-02T17:37:52.456Z,27.17
2019-05-02T17:40:59.415Z,28.77
2019-05-02T17:44:03.196Z,27.47
2019-05-02T17:47:07.326Z,27.10
2019-05-02T17:50:33.929Z,25.83
2019-05-02T17:53:41.469Z,28.17
2019-05-02T17:56:43.254Z,29.00
2019-05-02T17:59:47.401Z,33.10
2019-05-02T18:02:51.725Z,32.07
2019-05-02T18:05:56.350Z,27.93
2019-05-02T18:09:00.137Z,28.50
2019-05-02T18:12:07.152Z,30.07
2019-05-02T18:15:11.828Z,29.63
2019-05-02T18:18:16.763Z,26.77
2019-05-02T18:21:26.902Z,29.50
2019-05-02T18:24:26.186Z,33.67
2019-05-02T18:27:29.885Z,31.13
2019-05-02T18:30:33.704Z,31.00
2019-05-02T18:33:41.563Z,33.67
2019-05-02T18:36:42.912Z,30.77
2019-05-02T18:39:53.323Z,40.70
2019-05-02T18:42:56.609Z,37.43
2019-05-02T18:45:58.280Z,30.43
2019-05-02T18:49:03.163Z,32.80
2019-05-02T18:52:06.894Z,32.87
2019-05-02T18:55:10.623Z,37.87
2019-05-02T18:58:14.341Z,39.60
2019-05-02T19:01:20.843Z,36.73
2019-05-02T19:04:25.379Z,32.20
2019-05-02T19:07:32.962Z,34.53
2019-05-02T19:10:37.013Z,34.73
2019-05-02T19:13:42.669Z,35.23
2019-05-02T19:16:45.434Z,32.78
2019-05-02T19:19:49.126Z,36.43
2019-05-02T19:22:56.662Z,32.23
2019-05-02T19:26:03.677Z,35.03
2019-05-02T19:29:17.096Z,35.97
2019-05-02T19:32:25.503Z,32.20
2019-05-02T19:35:25.194Z,35.03
2019-05-02T19:38:28.927Z,30.30
2019-05-02T19:41:32.613Z,33.40
2019-05-02T19:44:36.366Z,33.13
2019-05-02T19:47:42.010Z,29.48
2019-05-02T19:50:45.764Z,34.20
2019-05-02T19:53:53.429Z,31.73
2019-05-02T19:56:56.533Z,30.25
2019-05-02T20:00:02.822Z,29.50
2019-05-02T20:03:06.310Z,29.15
2019-05-02T20:06:10.145Z,28.00
2019-05-02T20:09:13.850Z,27.73
2019-05-02T20:12:17.742Z,27.27
2019-05-02T20:15:26.855Z,24.90
2019-05-02T20:18:28.245Z,25.70
2019-05-02T20:21:37.910Z,25.17
2019-05-02T20:24:59.903Z,23.33
2019-05-02T20:28:01.981Z,21.40
2019-05-02T20:31:05.914Z,16.20
2019-05-02T20:34:11.672Z,17.17
2019-05-02T20:37:15.085Z,15.50
2019-05-02T20:40:28.803Z,15.30
2019-05-02T20:43:32.493Z,14.23
2019-05-02T20:46:36.238Z,12.23
2019-05-02T20:49:39.962Z,12.20
2019-05-02T20:52:43.637Z,10.80
2019-05-02T20:55:47.858Z,12.20
2019-05-02T20:58:52.691Z,10.73
2019-05-02T21:01:56.538Z,12.07
2019-05-02T21:05:00.262Z,10.37
2019-05-02T21:08:23.107Z,10.40
2019-05-02T21:11:27.600Z,10.20
2019-05-02T21:14:31.441Z,10.10
2019-05-02T21:17:35.138Z,9.70
2019-05-02T21:20:38.817Z,10.43
2019-05-02T21:23:47.373Z,10.40
2019-05-02T21:26:47.891Z,9.20
2019-05-02T21:29:52.259Z,9.83
2019-05-02T21:32:56.105Z,10.53
2019-05-02T21:36:01.009Z,10.73
2019-05-02T21:39:11.756Z,10.23
2019-05-02T21:42:15.390Z,9.43
2019-05-02T21:45:19.105Z,8.97
2019-05-02T21:48:24.121Z,8.50
2019-05-02T21:51:35.345Z,7.83
2019-05-02T21:54:45.685Z,8.47
2019-05-02T21:57:49.681Z,7.47
2019-05-02T22:01:02.969Z,7.37
2019-05-02T22:04:06.975Z,6.97
2019-05-02T22:07:12.190Z,6.78
2019-05-02T22:10:16.298Z,6.63
2019-05-02T22:13:22.091Z,6.27
2019-05-02T22:16:25.469Z,6.60
2019-05-02T22:19:29.162Z,5.73
2019-05-02T22:22:34.364Z,6.03
2019-05-02T22:25:38.120Z,6.10
2019-05-02T22:28:41.831Z,5.60
2019-05-02T22:31:45.518Z,5.10
2019-05-02T22:34:49.296Z,5.30
2019-05-02T22:37:54.955Z,5.00
2019-05-02T22:40:59.313Z,4.97
2019-05-02T22:44:02.993Z,5.47
2019-05-02T22:47:06.710Z,4.70
2019-05-02T22:50:13.918Z,4.93
2019-05-02T22:53:16.145Z,4.93
2019-05-02T22:56:19.785Z,5.30
2019-05-02T22:59:23.989Z,5.43
2019-05-02T23:02:27.734Z,3.97
2019-05-02T23:05:32.125Z,4.53
2019-05-02T23:08:37.279Z,3.60
2019-05-02T23:11:42.625Z,4.10
2019-05-02T23:14:46.544Z,4.10
2019-05-02T23:17:52.285Z,3.77
2019-05-02T23:20:56.042Z,3.90
2019-05-02T23:24:01.747Z,3.70
2019-05-02T23:27:24.554Z,3.77
2019-05-02T23:30:28.222Z,3.90
2019-05-02T23:33:51.640Z,3.60
2019-05-02T23:36:55.377Z,5.27
2019-05-02T23:39:59.082Z,5.47
2019-05-02T23:43:02.759Z,3.87
2019-05-02T23:46:06.730Z,4.30
2019-05-02T23:49:12.544Z,3.70
2019-05-02T23:52:16.084Z,4.03
2019-05-02T23:55:19.728Z,4.40
2019-05-02T23:58:24.265Z,4.23
